createdAt,value
2018-04-09T00:00:47.328Z,2.37
2018-04-09T00:03:15.604Z,2.37
2018-04-09T00:05:43.877Z,2.03
2018-04-09T00:08:12.141Z,2.60
2018-04-09T00:10:40.420Z,2.40
2018-04-09T00:13:08.684Z,2.50
2018-04-09T00:15:37.717Z,2.23
2018-04-09T00:18:06.001Z,2.40
2018-04-09T00:20:34.274Z,1.90
2018-04-09T00:23:02.537Z,2.20
2018-04-09T00:25:30.815Z,2.20
2018-04-09T00:27:59.093Z,2.07
2018-04-09T00:30:27.368Z,1.90
2018-04-09T00:32:55.632Z,2.00
2018-04-09T00:35:23.909Z,2.20
2018-04-09T00:37:52.176Z,2.00
2018-04-09T00:40:20.462Z,2.07
2018-04-09T00:42:48.742Z,1.73
2018-04-09T00:45:17.016Z,2.30
2018-04-09T00:47:45.280Z,2.20
2018-04-09T00:50:13.572Z,2.33
2018-04-09T00:52:41.852Z,2.50
2018-04-09T00:55:10.136Z,2.13
2018-04-09T00:57:38.483Z,2.00
2018-04-09T01:00:06.749Z,2.00
2018-04-09T01:02:35.804Z,2.10
2018-04-09T01:05:04.090Z,2.07
2018-04-09T01:07:32.353Z,1.90
2018-04-09T01:10:00.627Z,2.00
2018-04-09T01:12:28.902Z,1.73
2018-04-09T01:14:57.167Z,2.27
2018-04-09T01:17:25.434Z,1.70
2018-04-09T01:19:53.688Z,2.43
2018-04-09T01:22:21.981Z,2.10
2018-04-09T01:24:50.267Z,2.03
2018-04-09T01:27:18.543Z,2.00
2018-04-09T01:29:46.804Z,3.33
2018-04-09T01:32:15.058Z,2.30
2018-04-09T01:34:43.350Z,2.57
2018-04-09T01:37:11.636Z,1.80
2018-04-09T01:39:39.885Z,2.07
2018-04-09T01:42:08.976Z,2.20
2018-04-09T01:44:38.002Z,2.20
2018-04-09T01:47:06.257Z,2.37
2018-04-09T01:49:34.537Z,2.60
2018-04-09T01:52:02.793Z,2.40
2018-04-09T01:54:31.838Z,2.27
2018-04-09T01:57:00.124Z,1.90
2018-04-09T01:59:28.376Z,1.93
2018-04-09T02:01:56.628Z,2.00
2018-04-09T02:04:25.661Z,2.33
2018-04-09T02:06:53.919Z,2.60
2018-04-09T02:09:22.180Z,2.10
2018-04-09T02:11:50.452Z,1.87
2018-04-09T02:14:18.708Z,2.00
2018-04-09T02:16:47.728Z,2.30
2018-04-09T02:19:16.021Z,1.80
2018-04-09T02:21:44.297Z,2.13
2018-04-09T02:24:12.564Z,2.10
2018-04-09T02:26:40.823Z,2.03
2018-04-09T02:29:09.084Z,1.97
2018-04-09T02:31:38.121Z,2.33
2018-04-09T02:34:06.371Z,2.40
2018-04-09T02:36:34.622Z,2.10
2018-04-09T02:39:02.905Z,2.17
2018-04-09T02:41:31.936Z,2.10
2018-04-09T02:44:00.192Z,2.70
2018-04-09T02:46:28.507Z,2.80
2018-04-09T02:48:56.771Z,3.00
2018-04-09T02:51:25.019Z,2.77
2018-04-09T02:53:53.304Z,2.57
2018-04-09T02:56:21.547Z,3.20
2018-04-09T02:58:49.816Z,2.30
2018-04-09T03:01:18.085Z,2.33
2018-04-09T03:03:46.345Z,2.53
2018-04-09T03:06:14.593Z,2.90
2018-04-09T03:08:42.890Z,2.07
2018-04-09T03:11:11.149Z,2.37
2018-04-09T03:13:39.404Z,2.10
2018-04-09T03:16:07.677Z,2.00
2018-04-09T03:18:36.733Z,2.23
2018-04-09T03:21:04.986Z,2.20
2018-04-09T03:23:33.283Z,2.90
2018-04-09T03:26:01.536Z,1.90
2018-04-09T03:28:29.819Z,2.03
2018-04-09T03:30:58.089Z,2.03
2018-04-09T03:33:26.424Z,2.53
2018-04-09T03:35:55.451Z,2.00
2018-04-09T03:38:23.734Z,2.87
2018-04-09T03:40:51.996Z,2.57
2018-04-09T03:43:20.254Z,2.33
2018-04-09T03:45:49.299Z,2.60
2018-04-09T03:48:17.584Z,3.10
2018-04-09T03:50:45.849Z,3.37
2018-04-09T03:53:14.104Z,2.33
2018-04-09T03:55:42.361Z,2.47
2018-04-09T03:58:10.650Z,2.47
2018-04-09T04:00:38.901Z,2.50
2018-04-09T04:03:07.925Z,2.57
2018-04-09T04:05:36.195Z,2.40
2018-04-09T04:08:04.449Z,2.47
2018-04-09T04:10:33.476Z,2.90
2018-04-09T04:13:01.762Z,3.50
2018-04-09T04:15:47.992Z,2.63
2018-04-09T04:18:34.105Z,2.50
2018-04-09T04:24:12.685Z,2.00
2018-04-09T04:26:40.941Z,2.33
2018-04-09T04:29:09.201Z,3.00
2018-04-09T04:31:38.233Z,2.93
2018-04-09T04:34:06.502Z,3.37
2018-04-09T04:36:34.752Z,2.43
2018-04-09T04:39:03.026Z,2.60
2018-04-09T04:41:31.296Z,2.70
2018-04-09T04:44:00.345Z,2.90
2018-04-09T04:46:28.619Z,3.20
2018-04-09T04:48:56.889Z,2.73
2018-04-09T04:51:25.163Z,3.03
2018-04-09T04:53:53.432Z,3.00
2018-04-09T04:56:21.693Z,2.80
2018-04-09T04:58:49.941Z,3.03
2018-04-09T05:01:18.982Z,3.33
2018-04-09T05:03:47.244Z,2.65
2018-04-09T05:06:15.494Z,2.97
2018-04-09T05:08:43.777Z,2.67
2018-04-09T05:11:12.069Z,2.60
2018-04-09T05:13:40.321Z,2.20
2018-04-09T05:16:09.356Z,2.53
2018-04-09T05:18:37.618Z,2.27
2018-04-09T05:21:05.873Z,3.10
2018-04-09T05:23:34.165Z,3.10
2018-04-09T05:26:02.416Z,3.40
2018-04-09T05:28:31.456Z,2.93
2018-04-09T05:30:59.728Z,3.00
2018-04-09T05:33:27.984Z,3.03
2018-04-09T05:35:56.240Z,6.10
2018-04-09T05:38:25.289Z,6.40
2018-04-09T05:40:53.541Z,5.23
2018-04-09T05:43:21.811Z,3.43
2018-04-09T05:45:50.084Z,5.07
2018-04-09T05:48:18.357Z,6.00
2018-04-09T05:50:46.609Z,4.57
2018-04-09T05:53:15.648Z,3.90
2018-04-09T05:55:43.910Z,4.87
2018-04-09T05:58:12.177Z,3.87
2018-04-09T06:00:40.460Z,3.37
2018-04-09T06:03:08.723Z,2.33
2018-04-09T06:05:37.019Z,2.43
2018-04-09T06:08:05.272Z,2.57
2018-04-09T06:10:33.540Z,2.40
2018-04-09T06:13:02.569Z,2.60
2018-04-09T06:15:30.916Z,2.70
2018-04-09T06:17:59.256Z,3.40
2018-04-09T06:20:28.369Z,2.83
2018-04-09T06:22:57.475Z,3.27
2018-04-09T06:25:25.813Z,2.80
2018-04-09T06:27:54.104Z,2.20
2018-04-09T06:30:22.476Z,2.90
2018-04-09T06:32:50.765Z,3.10
2018-04-09T06:35:19.022Z,3.27
2018-04-09T06:37:47.307Z,3.60
2018-04-09T06:40:15.616Z,2.87
2018-04-09T06:42:43.874Z,3.00
2018-04-09T06:45:12.148Z,3.40
2018-04-09T06:47:40.545Z,3.07
2018-04-09T06:50:08.767Z,2.20
2018-04-09T06:52:37.047Z,2.70
2018-04-09T06:55:05.310Z,3.20
2018-04-09T06:57:33.601Z,2.53
2018-04-09T07:00:01.895Z,2.80
2018-04-09T07:02:30.153Z,2.70
2018-04-09T07:04:58.423Z,2.63
2018-04-09T07:07:26.752Z,2.50
2018-04-09T07:09:55.788Z,3.10
2018-04-09T07:12:24.049Z,3.17
2018-04-09T07:14:52.337Z,2.40
2018-04-09T07:17:20.605Z,4.93
2018-04-09T07:19:48.865Z,2.90
2018-04-09T07:22:17.142Z,3.00
2018-04-09T07:24:45.410Z,2.55
2018-04-09T07:27:14.429Z,3.60
2018-04-09T07:29:42.717Z,3.37
2018-04-09T07:32:10.982Z,2.90
2018-04-09T07:34:39.244Z,3.17
2018-04-09T07:37:07.538Z,3.60
2018-04-09T07:39:35.801Z,4.03
2018-04-09T07:42:04.086Z,3.80
2018-04-09T07:44:32.370Z,3.77
2018-04-09T07:47:00.630Z,3.50
2018-04-09T07:49:28.936Z,3.83
2018-04-09T07:51:57.235Z,3.60
2018-04-09T07:54:25.511Z,4.00
2018-04-09T07:56:53.769Z,3.97
2018-04-09T07:59:22.048Z,4.40
2018-04-09T08:01:50.317Z,4.20
2018-04-09T08:04:18.592Z,8.77
2018-04-09T08:06:46.873Z,3.67
2018-04-09T08:09:15.136Z,3.60
2018-04-09T08:11:44.166Z,4.20
2018-04-09T08:14:13.957Z,3.23
2018-04-09T08:16:42.220Z,3.63
2018-04-09T08:19:10.492Z,3.30
2018-04-09T08:21:39.582Z,3.10
2018-04-09T08:24:07.849Z,3.17
2018-04-09T08:26:36.109Z,3.37
2018-04-09T08:29:04.519Z,3.73
2018-04-09T08:31:32.784Z,4.10
2018-04-09T08:34:01.082Z,3.50
2018-04-09T08:36:29.360Z,2.80
2018-04-09T08:38:57.706Z,2.93
2018-04-09T08:41:25.982Z,3.40
2018-04-09T08:43:54.267Z,3.90
2018-04-09T08:46:22.522Z,3.20
2018-04-09T08:48:50.800Z,3.40
2018-04-09T08:51:19.076Z,3.47
2018-04-09T08:53:47.334Z,3.70
2018-04-09T08:56:16.461Z,3.50
2018-04-09T08:58:44.727Z,3.07
2018-04-09T09:01:13.020Z,3.40
2018-04-09T09:03:41.300Z,2.80
2018-04-09T09:06:09.556Z,3.00
2018-04-09T09:08:37.824Z,3.30
2018-04-09T09:11:06.860Z,3.10
2018-04-09T09:13:35.141Z,3.63
2018-04-09T09:16:03.412Z,3.03
2018-04-09T09:18:31.693Z,3.80
2018-04-09T09:20:59.949Z,3.50
2018-04-09T09:23:28.270Z,3.80
2018-04-09T09:25:56.562Z,3.27
2018-04-09T09:28:25.608Z,3.00
2018-04-09T09:30:53.874Z,3.50
2018-04-09T09:33:22.149Z,3.17
2018-04-09T09:35:50.411Z,3.40
2018-04-09T09:38:18.704Z,3.30
2018-04-09T09:40:46.976Z,2.80
2018-04-09T09:43:15.353Z,2.73
2018-04-09T09:45:43.612Z,3.30
2018-04-09T09:48:11.896Z,2.90
2018-04-09T09:50:40.153Z,3.30
2018-04-09T09:53:09.623Z,5.20
2018-04-09T09:55:38.693Z,3.73
2018-04-09T09:58:06.968Z,2.70
2018-04-09T10:00:40.675Z,3.30
2018-04-09T10:03:08.944Z,3.40
2018-04-09T10:05:37.216Z,3.37
2018-04-09T10:08:07.363Z,3.65
2018-04-09T10:10:35.640Z,3.60
2018-04-09T10:13:03.924Z,3.47
2018-04-09T10:15:32.185Z,3.00
2018-04-09T10:18:00.466Z,3.07
2018-04-09T10:20:28.784Z,3.90
2018-04-09T10:22:57.828Z,3.90
2018-04-09T10:25:26.114Z,3.20
2018-04-09T10:27:54.380Z,3.37
2018-04-09T10:30:22.642Z,3.60
2018-04-09T10:32:50.927Z,3.17
2018-04-09T10:35:19.193Z,3.30
2018-04-09T10:37:47.457Z,3.53
2018-04-09T10:40:15.748Z,3.70
2018-04-09T10:42:44.008Z,3.33
2018-04-09T10:45:12.265Z,3.60
2018-04-09T10:47:40.555Z,3.27
2018-04-09T10:50:08.816Z,4.83
2018-04-09T10:52:37.852Z,4.83
2018-04-09T10:55:06.175Z,3.63
2018-04-09T10:57:35.196Z,3.13
2018-04-09T11:00:03.472Z,3.20
2018-04-09T11:02:31.740Z,2.40
2018-04-09T11:05:00.030Z,2.57
2018-04-09T11:07:28.293Z,2.20
2018-04-09T11:09:56.582Z,2.33
2018-04-09T11:12:24.841Z,2.50
2018-04-09T11:14:53.957Z,2.40
2018-04-09T11:17:22.295Z,2.33
2018-04-09T11:19:51.420Z,1.97
2018-04-09T11:22:19.783Z,2.20
2018-04-09T11:24:48.136Z,3.10
2018-04-09T11:27:16.466Z,3.13
2018-04-09T11:29:44.821Z,2.30
2018-04-09T11:32:13.189Z,2.70
2018-04-09T11:34:42.291Z,2.90
2018-04-09T11:37:10.652Z,2.70
2018-04-09T11:39:39.758Z,3.03
2018-04-09T11:42:08.844Z,2.80
2018-04-09T11:44:37.196Z,2.37
2018-04-09T11:47:05.515Z,3.17
2018-04-09T11:49:33.848Z,2.70
2018-04-09T11:52:02.196Z,2.93
2018-04-09T11:54:30.478Z,2.70
2018-04-09T11:56:58.738Z,2.90
2018-04-09T11:59:27.050Z,3.10
2018-04-09T12:01:55.308Z,3.30
2018-04-09T12:04:23.573Z,2.97
2018-04-09T12:06:51.847Z,3.00
2018-04-09T12:09:20.123Z,2.60
2018-04-09T12:11:48.377Z,3.03
2018-04-09T12:14:17.447Z,2.70
2018-04-09T12:16:45.707Z,3.40
2018-04-09T12:19:13.965Z,3.30
2018-04-09T12:21:42.240Z,2.73
2018-04-09T12:24:10.530Z,3.05
2018-04-09T12:26:38.797Z,3.30
2018-04-09T12:29:07.082Z,2.90
2018-04-09T12:31:35.337Z,3.40
2018-04-09T12:34:03.597Z,2.80
2018-04-09T12:36:31.883Z,3.60
2018-04-09T12:39:00.140Z,3.00
2018-04-09T12:41:29.169Z,3.70
2018-04-09T12:43:57.454Z,3.50
2018-04-09T12:46:25.712Z,3.10
2018-04-09T12:48:53.978Z,3.17
2018-04-09T12:51:22.259Z,2.77
2018-04-09T12:53:50.556Z,3.33
2018-04-09T12:56:18.831Z,2.60
2018-04-09T12:58:47.095Z,2.70
2018-04-09T13:01:15.364Z,2.37
2018-04-09T13:03:43.643Z,2.57
2018-04-09T13:06:11.907Z,2.20
2018-04-09T13:08:40.170Z,2.80
2018-04-09T13:11:08.454Z,2.23
2018-04-09T13:13:36.722Z,2.30
2018-04-09T13:16:05.745Z,2.17
2018-04-09T13:18:34.027Z,2.77
2018-04-09T13:21:02.312Z,2.10
2018-04-09T13:23:30.575Z,2.40
2018-04-09T13:25:58.838Z,2.87
2018-04-09T13:28:27.126Z,2.00
2018-04-09T13:30:55.398Z,2.07
2018-04-09T13:33:23.654Z,2.10
2018-04-09T13:35:51.946Z,2.30
2018-04-09T13:38:20.222Z,2.27
2018-04-09T13:40:48.484Z,1.80
2018-04-09T13:43:16.799Z,1.70
2018-04-09T13:45:45.053Z,2.23
2018-04-09T13:48:13.334Z,1.80
2018-04-09T13:50:41.605Z,1.87
2018-04-09T13:53:09.874Z,1.90
2018-04-09T13:55:38.151Z,1.90
2018-04-09T13:58:06.433Z,2.10
2018-04-09T14:00:34.743Z,2.90
2018-04-09T14:03:03.003Z,3.27
2018-04-09T14:05:31.275Z,3.13
2018-04-09T14:07:59.575Z,2.53
2018-04-09T14:10:27.835Z,2.40
2018-04-09T14:12:56.098Z,2.67
2018-04-09T14:15:24.382Z,2.30
2018-04-09T14:17:52.643Z,2.77
2018-04-09T14:20:20.918Z,2.20
2018-04-09T14:22:49.195Z,2.50
2018-04-09T14:25:17.458Z,2.53
2018-04-09T14:27:45.740Z,2.77
2018-04-09T14:30:14.021Z,2.67
2018-04-09T14:32:42.299Z,2.33
2018-04-09T14:35:10.564Z,2.23
2018-04-09T14:37:38.845Z,2.67
2018-04-09T14:40:07.116Z,2.30
2018-04-09T14:42:36.175Z,2.90
2018-04-09T14:45:04.461Z,2.20
2018-04-09T14:47:32.738Z,2.30
2018-04-09T14:50:01.775Z,2.17
2018-04-09T14:52:30.041Z,2.40
2018-04-09T14:54:58.325Z,2.97
2018-04-09T14:57:26.605Z,2.50
2018-04-09T14:59:54.878Z,2.83
2018-04-09T15:02:23.253Z,2.40
2018-04-09T15:04:51.541Z,3.13
2018-04-09T15:07:19.802Z,2.67
2018-04-09T15:09:48.106Z,2.57
2018-04-09T15:12:16.368Z,2.20
2018-04-09T15:14:44.637Z,2.93
2018-04-09T15:17:12.936Z,2.00
2018-04-09T15:19:41.215Z,2.83
2018-04-09T15:22:09.498Z,2.80
2018-04-09T15:24:37.781Z,2.80
2018-04-09T15:27:06.025Z,2.57
2018-04-09T15:29:34.315Z,2.80
2018-04-09T15:32:02.578Z,2.50
2018-04-09T15:34:30.857Z,2.60
2018-04-09T15:36:59.120Z,2.77
2018-04-09T15:39:27.390Z,2.83
2018-04-09T15:41:55.683Z,2.33
2018-04-09T15:44:23.947Z,2.33
2018-04-09T15:46:52.234Z,2.27
2018-04-09T15:49:20.510Z,2.10
2018-04-09T15:51:48.810Z,2.33
2018-04-09T15:54:17.097Z,2.67
2018-04-09T15:56:46.159Z,2.33
2018-04-09T15:59:14.434Z,3.20
2018-04-09T16:01:42.708Z,2.20
2018-04-09T16:04:10.982Z,2.00
2018-04-09T16:06:39.268Z,2.10
2018-04-09T16:09:07.573Z,2.20
2018-04-09T16:11:36.631Z,2.23
2018-04-09T16:14:04.915Z,2.10
2018-04-09T16:16:33.167Z,2.07
2018-04-09T16:19:01.469Z,2.27
2018-04-09T16:21:29.738Z,2.50
2018-04-09T16:23:58.010Z,2.30
2018-04-09T16:26:26.296Z,2.30
2018-04-09T16:28:54.632Z,1.83
2018-04-09T16:31:23.667Z,1.97
2018-04-09T16:33:51.962Z,2.20
2018-04-09T16:36:20.239Z,2.00
2018-04-09T16:38:49.334Z,2.10
2018-04-09T16:41:17.611Z,2.00
2018-04-09T16:43:45.874Z,1.80
2018-04-09T16:46:14.151Z,2.20
2018-04-09T16:48:42.431Z,2.57
2018-04-09T16:51:10.706Z,2.10
2018-04-09T16:53:38.987Z,2.47
2018-04-09T16:56:07.259Z,2.73
2018-04-09T16:58:35.531Z,1.93
2018-04-09T17:01:03.836Z,2.70
2018-04-09T17:03:32.109Z,2.27
2018-04-09T17:06:00.383Z,2.73
2018-04-09T17:08:28.642Z,2.40
2018-04-09T17:10:56.919Z,2.00
2018-04-09T17:13:25.206Z,2.00
2018-04-09T17:15:53.479Z,2.00
2018-04-09T17:18:21.747Z,2.00
2018-04-09T17:20:50.029Z,1.93
2018-04-09T17:23:18.290Z,2.40
2018-04-09T17:25:46.559Z,2.03
2018-04-09T17:28:14.886Z,3.03
2018-04-09T17:30:43.175Z,2.63
2018-04-09T17:33:12.949Z,2.20
2018-04-09T17:35:41.251Z,1.90
2018-04-09T17:38:09.510Z,2.07
2018-04-09T17:40:37.795Z,2.30
2018-04-09T17:43:06.070Z,2.00
2018-04-09T17:45:34.576Z,2.50
2018-04-09T17:48:02.929Z,2.00
2018-04-09T17:50:32.003Z,2.30
2018-04-09T17:53:00.350Z,1.83
2018-04-09T17:55:28.770Z,2.20
2018-04-09T17:57:57.077Z,2.60
2018-04-09T18:00:26.127Z,2.30
2018-04-09T18:02:54.615Z,2.73
2018-04-09T18:05:22.971Z,3.07
2018-04-09T18:07:51.499Z,2.70
2018-04-09T18:10:20.735Z,3.20
2018-04-09T18:12:49.411Z,3.70
2018-04-09T18:15:17.905Z,3.97
2018-04-09T18:17:46.673Z,3.10
2018-04-09T18:20:15.317Z,3.40
2018-04-09T18:22:45.289Z,3.57
2018-04-09T18:25:14.671Z,3.20
2018-04-09T18:27:43.972Z,3.30
2018-04-09T18:30:13.248Z,3.57
2018-04-09T18:32:42.600Z,2.90
2018-04-09T18:35:13.425Z,3.20
2018-04-09T18:37:43.563Z,2.93
2018-04-09T18:40:13.651Z,3.03
2018-04-09T18:42:43.022Z,3.50
2018-04-09T18:45:12.582Z,4.30
2018-04-09T18:47:42.042Z,4.40
2018-04-09T18:50:11.616Z,4.50
2018-04-09T18:52:41.053Z,4.23
2018-04-09T18:55:11.248Z,4.07
2018-04-09T18:57:42.456Z,4.37
2018-04-09T19:00:11.968Z,5.00
2018-04-09T19:02:42.409Z,4.37
2018-04-09T19:05:11.803Z,4.70
2018-04-09T19:07:41.241Z,5.30
2018-04-09T19:10:10.828Z,5.10
2018-04-09T19:12:40.454Z,5.40
2018-04-09T19:15:09.935Z,5.10
2018-04-09T19:17:39.461Z,5.20
2018-04-09T19:20:09.395Z,5.80
2018-04-09T19:22:39.020Z,5.03
2018-04-09T19:25:08.557Z,5.37
2018-04-09T19:27:38.179Z,6.00
2018-04-09T19:30:07.741Z,5.97
2018-04-09T19:32:37.307Z,5.43
2018-04-09T19:35:09.636Z,6.23
2018-04-09T19:46:30.721Z,7.23
2018-04-09T19:48:59.067Z,6.30
2018-04-09T19:51:29.253Z,6.27
2018-04-09T19:53:58.593Z,7.10
2018-04-09T19:56:28.871Z,6.13
2018-04-09T19:58:58.315Z,7.90
2018-04-09T20:01:28.143Z,8.60
2018-04-09T20:03:57.944Z,7.57
2018-04-09T20:06:27.857Z,7.80
2018-04-09T20:08:59.643Z,7.10
2018-04-09T20:11:29.557Z,7.00
2018-04-09T20:13:59.287Z,8.10
2018-04-09T20:16:29.181Z,7.37
2018-04-09T20:18:58.972Z,8.70
2018-04-09T20:21:28.907Z,8.10
2018-04-09T20:23:58.720Z,7.95
2018-04-09T20:26:29.308Z,8.33
2018-04-09T20:28:59.265Z,8.43
2018-04-09T20:31:29.053Z,8.97
2018-04-09T20:33:58.787Z,8.10
2018-04-09T20:36:28.703Z,9.20
2018-04-09T20:38:58.492Z,7.70
2018-04-09T20:41:28.310Z,8.37
2018-04-09T20:43:57.999Z,9.37
2018-04-09T20:46:28.319Z,7.97
2018-04-09T20:48:57.886Z,7.50
2018-04-09T20:51:27.207Z,7.33
2018-04-09T20:53:56.461Z,7.83
2018-04-09T20:56:25.099Z,7.27
2018-04-09T20:58:54.243Z,7.50
2018-04-09T21:01:22.543Z,7.13
2018-04-09T21:03:50.815Z,7.80
2018-04-09T21:06:19.134Z,7.40
2018-04-09T21:08:47.400Z,7.13
2018-04-09T21:11:15.707Z,8.17
2018-04-09T21:13:43.979Z,7.60
2018-04-09T21:16:13.072Z,7.97
2018-04-09T21:18:42.146Z,7.30
2018-04-09T21:21:10.411Z,6.90
2018-04-09T21:23:38.717Z,7.07
2018-04-09T21:26:07.759Z,7.60
2018-04-09T21:28:36.049Z,7.30
2018-04-09T21:31:04.351Z,9.53
2018-04-09T21:33:32.662Z,7.50
2018-04-09T21:36:00.959Z,8.67
2018-04-09T21:38:29.238Z,8.13
2018-04-09T21:40:57.512Z,8.50
2018-04-09T21:43:25.794Z,8.33
2018-04-09T21:45:54.078Z,8.30
2018-04-09T21:48:22.367Z,7.40
2018-04-09T21:50:50.635Z,8.00
2018-04-09T21:53:18.972Z,7.27
2018-04-09T21:55:47.235Z,8.23
2018-04-09T21:58:16.295Z,7.93
2018-04-09T22:00:44.575Z,7.10
2018-04-09T22:03:12.891Z,7.20
2018-04-09T22:05:42.006Z,8.10
2018-04-09T22:08:10.408Z,8.10
2018-04-09T22:10:38.809Z,7.60
2018-04-09T22:13:07.209Z,8.00
2018-04-09T22:15:35.630Z,8.90
2018-04-09T22:18:04.037Z,9.27
2018-04-09T22:20:32.426Z,7.90
2018-04-09T22:23:00.869Z,7.30
2018-04-09T22:25:29.236Z,8.80
2018-04-09T22:27:57.615Z,7.27
2018-04-09T22:30:25.984Z,7.40
2018-04-09T22:32:54.410Z,8.70
2018-04-09T22:35:22.768Z,8.75
2018-04-09T22:37:51.142Z,7.67
2018-04-09T22:40:19.525Z,6.97
2018-04-09T22:42:47.891Z,6.80
2018-04-09T22:45:16.269Z,6.80
2018-04-09T22:47:44.627Z,7.67
2018-04-09T22:50:13.034Z,7.60
2018-04-09T22:52:41.415Z,8.13
2018-04-09T22:55:09.872Z,7.70
2018-04-09T22:57:38.261Z,8.00
2018-04-09T23:00:06.687Z,7.70
2018-04-09T23:02:35.793Z,7.97
2018-04-09T23:05:04.945Z,7.97
2018-04-09T23:07:33.357Z,6.37
2018-04-09T23:10:01.729Z,6.77
2018-04-09T23:12:30.083Z,7.30
2018-04-09T23:14:59.344Z,7.90
2018-04-09T23:17:27.799Z,8.33
2018-04-09T23:19:56.166Z,7.70
2018-04-09T23:22:35.275Z,7.07
2018-04-09T23:25:03.726Z,6.80
2018-04-09T23:27:32.104Z,7.10
2018-04-09T23:30:00.528Z,7.77
2018-04-09T23:32:28.963Z,7.43
2018-04-09T23:34:57.407Z,7.30
2018-04-09T23:37:25.773Z,6.40
2018-04-09T23:39:54.895Z,7.13
2018-04-09T23:42:24.023Z,7.40
2018-04-09T23:44:52.310Z,8.60
2018-04-09T23:47:20.591Z,8.60
2018-04-09T23:49:48.866Z,9.47
2018-04-09T23:52:17.163Z,7.33
2018-04-09T23:54:45.438Z,7.93
2018-04-09T23:57:13.721Z,6.97
2018-04-09T23:59:41.991Z,8.17
